Time;durP1;ratioP1;P1;durP2;ratioP2;P2;SDS_P1;SDS_P2;PMS_P1;PMS_P2;Temp;Humidity;BMP_temperature;BMP_pressure;BME280_temperature;BME280_humidity;BME280_pressure;Samples;Min_cycle;Max_cycle;Signal;HPM_P1;HPM_P2
2021/07/17 00:01:03;;;;;;;10.90;6.13;;;19.90;99.90;;;;;;5060272;28;20542;-70
2021/07/17 00:03:30;;;;;;;12.13;5.57;;;20.00;99.90;;;;;;5047125;28;20977;-71
2021/07/17 00:05:57;;;;;;;17.40;6.90;;;20.00;99.90;;;;;;5058697;28;20513;-70
2021/07/17 00:08:24;;;;;;;23.50;6.20;;;19.80;99.90;;;;;;5061907;28;20550;-70
2021/07/17 00:10:51;;;;;;;18.77;7.77;;;19.80;99.90;;;;;;5061762;28;20511;-71
2021/07/17 00:13:20;;;;;;;7.97;5.93;;;19.80;99.90;;;;;;5063100;28;20830;-71
2021/07/17 00:15:50;;;;;;;22.37;7.60;;;19.80;99.90;;;;;;5061670;28;20467;-71
2021/07/17 00:18:17;;;;;;;16.07;6.60;;;19.90;99.90;;;;;;5065720;28;20451;-71
2021/07/17 00:20:45;;;;;;;14.73;7.60;;;19.90;99.90;;;;;;5056352;28;20538;-70
2021/07/17 00:23:12;;;;;;;9.33;7.40;;;19.90;99.90;;;;;;5060553;28;20460;-71
2021/07/17 00:25:40;;;;;;;12.33;5.40;;;19.90;99.90;;;;;;5067494;28;20443;-71
2021/07/17 00:28:07;;;;;;;10.43;7.10;;;19.80;99.90;;;;;;5070404;28;20544;-71
2021/07/17 00:30:34;;;;;;;12.13;6.57;;;19.90;99.90;;;;;;5066828;28;21182;-71
2021/07/17 00:33:03;;;;;;;14.87;6.10;;;19.80;99.90;;;;;;5070543;28;20530;-71
2021/07/17 00:35:30;;;;;;;14.90;7.03;;;19.70;99.90;;;;;;5061226;28;21030;-71
2021/07/17 00:37:57;;;;;;;21.80;5.87;;;19.90;99.90;;;;;;5061264;28;21078;-71
2021/07/17 00:40:24;;;;;;;17.20;7.70;;;19.80;99.90;;;;;;5073385;28;20513;-72
2021/07/17 00:42:52;;;;;;;13.23;6.93;;;19.70;99.90;;;;;;5070964;28;20464;-71
2021/07/17 00:45:20;;;;;;;12.00;6.20;;;19.50;99.90;;;;;;5072642;28;20569;-72
2021/07/17 00:47:48;;;;;;;15.93;8.30;;;19.60;99.90;;;;;;5078543;28;20997;-71
2021/07/17 00:50:17;;;;;;;15.90;6.80;;;19.60;99.90;;;;;;5068244;28;20524;-70
2021/07/17 00:52:45;;;;;;;18.80;8.83;;;19.70;99.90;;;;;;5062608;28;20558;-70
2021/07/17 00:55:13;;;;;;;9.07;5.30;;;19.50;99.90;;;;;;5068582;28;21064;-70
2021/07/17 00:57:41;;;;;;;8.20;5.60;;;19.40;99.90;;;;;;5062274;28;20498;-70
2021/07/17 01:00:11;;;;;;;21.30;7.43;;;19.30;99.90;;;;;;5060585;28;20553;-69
2021/07/17 01:02:39;;;;;;;13.30;8.63;;;19.20;99.90;;;;;;5057452;28;20491;-69
2021/07/17 01:05:08;;;;;;;18.63;5.83;;;19.30;99.90;;;;;;5058272;28;20990;-70
2021/07/17 01:07:36;;;;;;;16.73;8.03;;;19.20;99.90;;;;;;5057151;28;20903;-71
2021/07/17 01:10:06;;;;;;;15.07;6.47;;;19.30;99.90;;;;;;5063875;28;20939;-69
2021/07/17 01:12:33;;;;;;;10.67;6.43;;;19.30;99.90;;;;;;5058286;28;20581;-70
2021/07/17 01:15:01;;;;;;;13.90;7.70;;;19.30;99.90;;;;;;5063422;28;21145;-71
2021/07/17 01:17:28;;;;;;;19.37;7.60;;;19.30;99.90;;;;;;5062882;28;20485;-70
2021/07/17 01:19:55;;;;;;;13.40;5.90;;;19.30;99.90;;;;;;5061684;28;20541;-70
2021/07/17 01:22:24;;;;;;;11.40;7.20;;;19.30;99.90;;;;;;5062372;28;20550;-71
2021/07/17 01:24:51;;;;;;;22.20;6.60;;;19.30;99.90;;;;;;5056595;28;20476;-70
2021/07/17 01:27:19;;;;;;;11.27;6.93;;;19.30;99.90;;;;;;5061825;28;20559;-70
2021/07/17 01:29:46;;;;;;;15.23;6.17;;;19.40;99.90;;;;;;5062698;28;20487;-70
2021/07/17 01:32:14;;;;;;;18.67;5.60;;;19.40;99.90;;;;;;5061606;28;20486;-71
2021/07/17 01:34:41;;;;;;;22.97;6.70;;;19.40;99.90;;;;;;5057146;28;20542;-71
2021/07/17 01:37:08;;;;;;;15.00;6.70;;;19.40;99.90;;;;;;5062967;28;20486;-70
2021/07/17 01:39:36;;;;;;;8.20;4.97;;;19.50;99.90;;;;;;5055756;28;20561;-71
2021/07/17 01:42:04;;;;;;;21.37;7.53;;;19.40;99.90;;;;;;5059450;28;20505;-71
2021/07/17 01:44:40;;;;;;;8.30;5.60;;;19.40;99.90;;;;;;5062142;28;20532;-71
2021/07/17 01:47:06;;;;;;;10.73;5.50;;;19.40;99.90;;;;;;5062140;28;20568;-71
2021/07/17 01:49:33;;;;;;;11.30;6.07;;;19.30;99.90;;;;;;5063981;28;20597;-70
2021/07/17 01:52:00;;;;;;;18.80;6.70;;;19.30;99.90;;;;;;5054213;28;20905;-70
2021/07/17 01:54:31;;;;;;;14.53;7.10;;;19.20;99.90;;;;;;5068197;28;20517;-70
2021/07/17 01:57:00;;;;;;;17.20;7.60;;;19.20;99.90;;;;;;5059184;28;20490;-71
2021/07/17 01:59:27;;;;;;;17.10;6.93;;;19.20;99.90;;;;;;5061850;28;20453;-71
2021/07/17 02:01:53;;;;;;;18.37;6.73;;;19.20;99.90;;;;;;5063405;28;20588;-69
2021/07/17 02:04:20;;;;;;;20.97;6.20;;;19.20;99.90;;;;;;5062829;28;20462;-70
2021/07/17 02:06:47;;;;;;;8.80;6.13;;;19.30;99.90;;;;;;5068354;28;20562;-70
2021/07/17 02:09:14;;;;;;;11.13;6.30;;;19.40;99.90;;;;;;5061965;28;20866;-70
2021/07/17 02:11:41;;;;;;;9.50;5.50;;;19.20;99.90;;;;;;5062338;28;20538;-70
2021/07/17 02:14:10;;;;;;;11.07;6.33;;;19.20;99.90;;;;;;5065745;28;20455;-70
2021/07/17 02:16:37;;;;;;;14.33;7.13;;;19.30;99.90;;;;;;5061658;28;20513;-70
2021/07/17 02:19:13;;;;;;;25.83;9.00;;;19.30;99.90;;;;;;5062139;28;20807;-69
2021/07/17 02:21:40;;;;;;;14.57;5.83;;;19.30;99.90;;;;;;5059088;28;20434;-71
2021/07/17 02:24:07;;;;;;;20.80;6.20;;;19.30;99.90;;;;;;5059401;28;20473;-69
2021/07/17 02:26:43;;;;;;;11.17;5.30;;;19.20;99.90;;;;;;5056196;28;20470;-72
2021/07/17 02:29:38;;;;;;;10.37;5.80;;;19.30;99.90;;;;;;5063066;28;20446;-71
2021/07/17 02:32:05;;;;;;;14.00;6.33;;;19.20;99.90;;;;;;5058602;28;20566;-70
2021/07/17 02:34:32;;;;;;;16.20;5.53;;;19.00;99.90;;;;;;5063123;28;20969;-69
2021/07/17 02:36:59;;;;;;;14.23;5.67;;;19.10;99.90;;;;;;5059723;28;20598;-71
2021/07/17 02:39:26;;;;;;;12.87;6.30;;;19.10;99.90;;;;;;5060226;28;20526;-69
2021/07/17 02:41:53;;;;;;;9.53;6.07;;;19.10;99.90;;;;;;5064278;28;20537;-70
2021/07/17 02:44:20;;;;;;;13.37;5.70;;;19.10;99.90;;;;;;5061339;28;20486;-70
2021/07/17 02:46:48;;;;;;;12.90;6.47;;;19.20;99.90;;;;;;5064038;28;20526;-69
2021/07/17 02:49:15;;;;;;;13.10;6.60;;;19.10;99.90;;;;;;5062520;28;20462;-71
2021/07/17 02:51:42;;;;;;;8.43;4.60;;;19.20;99.90;;;;;;5055880;28;20486;-71
2021/07/17 02:54:10;;;;;;;19.07;7.00;;;19.30;99.90;;;;;;5058226;28;20473;-71
2021/07/17 02:56:38;;;;;;;6.00;5.27;;;19.20;99.90;;;;;;5053863;28;20463;-70
2021/07/17 02:59:05;;;;;;;10.20;5.87;;;19.20;99.90;;;;;;5052037;28;20451;-70
2021/07/17 03:01:32;;;;;;;12.10;5.73;;;19.20;99.90;;;;;;5048203;28;20466;-71
2021/07/17 03:04:00;;;;;;;9.73;5.77;;;19.20;99.90;;;;;;5053802;28;20461;-70
2021/07/17 03:06:27;;;;;;;9.00;5.60;;;19.20;99.90;;;;;;5053895;28;20455;-71
2021/07/17 03:08:54;;;;;;;17.33;6.80;;;19.10;99.90;;;;;;5051888;28;20747;-71
2021/07/17 03:11:21;;;;;;;11.40;5.83;;;19.00;99.90;;;;;;5060604;28;20811;-71
2021/07/17 03:13:48;;;;;;;9.13;5.27;;;19.20;99.90;;;;;;5057602;28;20555;-72
2021/07/17 03:16:16;;;;;;;23.07;6.43;;;19.20;99.90;;;;;;5060687;28;20578;-71
2021/07/17 03:18:43;;;;;;;13.57;6.00;;;19.20;99.90;;;;;;5052892;28;20470;-71
2021/07/17 03:21:12;;;;;;;23.17;7.57;;;19.10;99.90;;;;;;5050332;28;20894;-73
2021/07/17 03:23:40;;;;;;;19.43;6.97;;;19.10;99.90;;;;;;5048295;28;20454;-70
2021/07/17 03:26:07;;;;;;;13.77;6.20;;;19.20;99.90;;;;;;5054993;28;20477;-72
2021/07/17 03:28:34;;;;;;;10.10;5.90;;;19.20;99.90;;;;;;5057421;28;20480;-71
2021/07/17 03:31:01;;;;;;;8.63;7.13;;;19.10;99.90;;;;;;5055939;28;20550;-70
2021/07/17 03:33:29;;;;;;;14.30;7.07;;;19.10;99.90;;;;;;5051857;28;20549;-70
2021/07/17 03:35:57;;;;;;;7.03;5.33;;;19.10;99.90;;;;;;5053413;28;20798;-70
2021/07/17 03:38:31;;;;;;;13.53;5.97;;;19.00;99.90;;;;;;5061370;28;20443;-70
2021/07/17 03:40:58;;;;;;;19.77;6.87;;;19.00;99.90;;;;;;5050535;28;20447;-71
2021/07/17 03:43:25;;;;;;;20.80;7.40;;;19.00;99.90;;;;;;5050474;28;20551;-72
2021/07/17 03:45:52;;;;;;;14.53;7.57;;;18.80;99.90;;;;;;5048244;28;20555;-70
2021/07/17 03:48:19;;;;;;;13.50;5.83;;;19.00;99.90;;;;;;5053135;28;20559;-73
2021/07/17 03:50:46;;;;;;;12.70;7.03;;;19.00;99.90;;;;;;5064373;28;20537;-73
2021/07/17 03:53:12;;;;;;;10.93;5.40;;;19.10;99.90;;;;;;5053508;28;20469;-69
2021/07/17 03:55:41;;;;;;;10.13;6.23;;;19.10;99.90;;;;;;5052995;28;20554;-71
2021/07/17 03:58:08;;;;;;;17.17;7.90;;;19.10;99.90;;;;;;5051397;28;20449;-70
2021/07/17 04:00:34;;;;;;;13.23;7.03;;;19.10;99.90;;;;;;5060945;28;20970;-70
2021/07/17 04:03:03;;;;;;;14.47;7.37;;;19.10;99.90;;;;;;5060740;28;20541;-70
2021/07/17 04:05:31;;;;;;;13.07;6.60;;;19.20;99.90;;;;;;5062466;28;20533;-70
2021/07/17 04:07:58;;;;;;;11.80;6.50;;;19.20;99.90;;;;;;5053620;28;20486;-71
2021/07/17 04:10:25;;;;;;;16.20;7.23;;;19.30;99.90;;;;;;5048045;28;20805;-73
2021/07/17 04:12:53;;;;;;;13.47;6.77;;;19.30;99.90;;;;;;5048054;28;20474;-70
2021/07/17 04:15:20;;;;;;;11.90;7.37;;;19.30;99.90;;;;;;5057853;28;20594;-69
2021/07/17 04:17:47;;;;;;;18.83;6.87;;;19.30;99.90;;;;;;5063109;28;20480;-70
2021/07/17 04:20:15;;;;;;;23.23;7.93;;;19.20;99.90;;;;;;5056785;28;20485;-71
2021/07/17 04:22:42;;;;;;;19.07;6.40;;;19.30;99.90;;;;;;5054456;28;20483;-68
2021/07/17 04:25:11;;;;;;;11.13;7.73;;;19.20;99.90;;;;;;5055184;28;20549;-73
2021/07/17 04:27:39;;;;;;;18.93;7.33;;;19.30;99.90;;;;;;5054631;28;20846;-71
2021/07/17 04:30:09;;;;;;;15.20;6.90;;;19.20;99.90;;;;;;5049183;28;20458;-71
2021/07/17 04:32:37;;;;;;;13.47;6.17;;;19.20;99.90;;;;;;5044274;28;20577;-72
2021/07/17 04:35:04;;;;;;;15.50;7.20;;;19.20;99.90;;;;;;5056395;28;20454;-69
2021/07/17 04:37:31;;;;;;;14.83;6.90;;;19.20;99.90;;;;;;5063196;28;20478;-70
2021/07/17 04:39:58;;;;;;;16.40;7.60;;;19.10;99.90;;;;;;5056873;28;20537;-69
2021/07/17 04:42:25;;;;;;;16.07;7.07;;;19.10;99.90;;;;;;5051181;28;21006;-69
2021/07/17 04:44:52;;;;;;;13.87;7.00;;;19.10;99.90;;;;;;5055860;28;20572;-70
2021/07/17 04:47:21;;;;;;;21.33;9.50;;;19.10;99.90;;;;;;5065831;28;20481;-71
2021/07/17 04:49:47;;;;;;;19.20;8.40;;;19.10;99.90;;;;;;5063116;28;20455;-70
2021/07/17 04:52:14;;;;;;;17.80;6.87;;;19.20;99.90;;;;;;5064634;28;20590;-70
2021/07/17 04:54:42;;;;;;;9.73;6.50;;;19.30;99.90;;;;;;5048703;28;20557;-73
2021/07/17 04:57:09;;;;;;;19.13;6.33;;;19.30;99.90;;;;;;5058130;28;20517;-71
2021/07/17 04:59:36;;;;;;;17.30;7.70;;;19.40;99.90;;;;;;5058421;28;20501;-70
2021/07/17 05:02:03;;;;;;;14.20;8.07;;;19.20;99.90;;;;;;5060183;28;20997;-69
2021/07/17 05:04:31;;;;;;;14.37;8.00;;;19.10;99.90;;;;;;5059399;28;20533;-71
2021/07/17 05:06:58;;;;;;;21.10;8.90;;;19.10;99.90;;;;;;5060754;28;20475;-69
2021/07/17 05:09:25;;;;;;;17.07;7.00;;;19.20;99.90;;;;;;5063851;28;20510;-71
2021/07/17 05:11:52;;;;;;;12.60;6.60;;;19.20;99.90;;;;;;5048363;28;20470;-70
2021/07/17 05:14:19;;;;;;;17.70;7.03;;;19.20;99.90;;;;;;5058084;28;20542;-70
2021/07/17 05:16:46;;;;;;;22.27;6.47;;;19.00;99.90;;;;;;5059940;28;20865;-73
2021/07/17 05:19:13;;;;;;;15.60;7.83;;;19.00;99.90;;;;;;5064112;28;20530;-69
2021/07/17 05:21:41;;;;;;;10.53;5.60;;;19.10;99.90;;;;;;5061573;28;20462;-71
2021/07/17 05:24:08;;;;;;;21.10;7.60;;;19.20;99.90;;;;;;5058211;28;20506;-69
2021/07/17 05:26:35;;;;;;;14.30;5.90;;;19.20;99.90;;;;;;5060274;28;20855;-70
2021/07/17 05:29:02;;;;;;;16.87;7.23;;;19.20;99.90;;;;;;5054706;28;20915;-70
2021/07/17 05:31:29;;;;;;;15.27;6.40;;;19.20;99.90;;;;;;5058225;28;20580;-72
2021/07/17 05:33:56;;;;;;;12.47;8.03;;;19.20;99.90;;;;;;5059159;28;21113;-71
2021/07/17 05:36:23;;;;;;;9.50;6.77;;;19.20;99.90;;;;;;5058706;28;20558;-74
2021/07/17 05:38:51;;;;;;;15.43;6.70;;;19.20;99.90;;;;;;5056657;28;20467;-71
2021/07/17 05:41:18;;;;;;;20.67;7.53;;;19.20;99.90;;;;;;5059858;28;21032;-72
2021/07/17 05:43:45;;;;;;;11.63;7.10;;;19.10;99.90;;;;;;5058412;28;20509;-69
2021/07/17 05:46:12;;;;;;;16.63;7.20;;;19.00;99.90;;;;;;5055806;28;20565;-70
2021/07/17 05:48:39;;;;;;;15.60;5.77;;;19.00;99.90;;;;;;5051168;28;20500;-70
2021/07/17 05:51:06;;;;;;;11.10;7.77;;;18.90;99.90;;;;;;5057700;28;20446;-68
2021/07/17 05:53:33;;;;;;;14.60;7.53;;;19.00;99.90;;;;;;5050878;28;20542;-70
2021/07/17 05:56:01;;;;;;;13.03;7.37;;;19.00;99.90;;;;;;5054908;28;20537;-69
2021/07/17 05:58:28;;;;;;;9.27;5.50;;;19.00;99.90;;;;;;5053936;28;20970;-69
2021/07/17 06:00:55;;;;;;;11.73;6.20;;;19.00;99.90;;;;;;5051624;28;20479;-71
2021/07/17 06:03:22;;;;;;;17.93;7.10;;;18.90;99.90;;;;;;5056227;28;20457;-70
2021/07/17 06:05:49;;;;;;;13.27;6.67;;;19.00;99.90;;;;;;5056297;28;20474;-73
2021/07/17 06:08:15;;;;;;;16.67;7.17;;;19.00;99.90;;;;;;5053454;28;20479;-70
2021/07/17 06:10:42;;;;;;;31.83;6.90;;;19.00;99.90;;;;;;5052850;28;20459;-69
2021/07/17 06:13:11;;;;;;;10.00;6.27;;;19.00;99.90;;;;;;5043754;28;20504;-69
2021/07/17 06:15:37;;;;;;;11.20;6.40;;;19.00;99.90;;;;;;5051651;28;20563;-69
2021/07/17 06:18:04;;;;;;;19.67;6.27;;;19.00;99.90;;;;;;5056116;28;20573;-68
2021/07/17 06:20:31;;;;;;;10.80;6.30;;;19.00;99.90;;;;;;5056111;28;20500;-70
2021/07/17 06:22:58;;;;;;;11.90;6.37;;;19.10;99.90;;;;;;5044288;28;20891;-69
2021/07/17 06:25:25;;;;;;;9.27;5.03;;;19.20;99.90;;;;;;5057105;28;20805;-71
2021/07/17 06:27:52;;;;;;;19.60;7.43;;;19.10;99.90;;;;;;5059913;28;20562;-69
2021/07/17 06:30:21;;;;;;;9.63;6.10;;;19.10;99.90;;;;;;5049822;28;20477;-69
2021/07/17 06:32:48;;;;;;;12.17;5.30;;;19.20;99.90;;;;;;5046768;28;20470;-69
2021/07/17 06:35:15;;;;;;;9.77;5.40;;;19.30;99.90;;;;;;5051687;28;20475;-69
2021/07/17 06:37:42;;;;;;;9.33;5.80;;;19.40;99.90;;;;;;5054093;28;20838;-72
2021/07/17 06:40:14;;;;;;;13.80;6.23;;;19.60;99.90;;;;;;5060580;28;20545;-71
2021/07/17 06:42:43;;;;;;;10.00;6.60;;;19.50;99.90;;;;;;5053059;28;20588;-69
2021/07/17 06:45:11;;;;;;;12.57;5.77;;;19.70;99.90;;;;;;5051829;28;20554;-69
2021/07/17 06:47:40;;;;;;;9.93;6.40;;;19.60;99.90;;;;;;5061544;28;20570;-72
2021/07/17 06:50:08;;;;;;;20.93;6.90;;;19.60;99.90;;;;;;5064386;28;20939;-69
2021/07/17 06:52:35;;;;;;;22.07;7.10;;;19.60;99.90;;;;;;5058843;28;20450;-69
2021/07/17 06:55:02;;;;;;;13.17;6.30;;;19.60;99.90;;;;;;5061131;28;20461;-69
2021/07/17 06:57:28;;;;;;;12.00;6.93;;;19.60;99.90;;;;;;5064439;28;20462;-70
2021/07/17 06:59:56;;;;;;;23.50;6.20;;;19.70;99.90;;;;;;5053305;28;20590;-70
2021/07/17 07:02:23;;;;;;;6.47;4.97;;;19.70;99.90;;;;;;5052637;28;20545;-68
2021/07/17 07:04:52;;;;;;;14.50;6.93;;;19.80;99.90;;;;;;5052319;28;20459;-71
2021/07/17 07:07:19;;;;;;;17.70;6.00;;;19.80;99.90;;;;;;5058239;28;20507;-70
2021/07/17 07:09:46;;;;;;;11.53;6.00;;;19.80;99.90;;;;;;5057415;28;20573;-70
2021/07/17 07:12:12;;;;;;;18.03;6.67;;;19.90;99.90;;;;;;5057543;28;20550;-71
2021/07/17 07:14:39;;;;;;;12.43;6.17;;;19.90;99.90;;;;;;5054145;28;20487;-70
2021/07/17 07:17:06;;;;;;;14.87;5.93;;;20.00;99.90;;;;;;5053504;28;20858;-69
2021/07/17 07:19:33;;;;;;;9.23;6.37;;;20.00;99.90;;;;;;5061086;28;20575;-69
2021/07/17 07:22:01;;;;;;;11.07;5.63;;;20.00;99.90;;;;;;5069287;28;20501;-70
2021/07/17 07:24:29;;;;;;;9.53;6.27;;;19.90;99.90;;;;;;5077198;28;20765;-73
2021/07/17 07:26:56;;;;;;;9.07;5.83;;;19.80;99.90;;;;;;5077286;28;20546;-74
2021/07/17 07:29:23;;;;;;;15.73;5.40;;;19.80;99.90;;;;;;5066369;28;20479;-71
2021/07/17 07:31:50;;;;;;;22.60;7.80;;;20.00;99.90;;;;;;5062609;28;20546;-70
2021/07/17 07:34:17;;;;;;;16.03;6.70;;;19.90;99.90;;;;;;5067747;28;20483;-74
2021/07/17 07:36:44;;;;;;;9.80;5.90;;;20.00;99.90;;;;;;5068833;28;20983;-70
2021/07/17 07:39:12;;;;;;;22.43;6.80;;;20.20;99.90;;;;;;5071250;28;20454;-71
2021/07/17 07:41:39;;;;;;;10.23;5.83;;;20.10;99.90;;;;;;5072229;28;20482;-71
2021/07/17 07:44:06;;;;;;;12.10;6.30;;;20.00;99.90;;;;;;5074415;28;20509;-71
2021/07/17 07:46:34;;;;;;;13.33;6.50;;;20.10;99.90;;;;;;5067358;28;20567;-71
2021/07/17 07:49:01;;;;;;;11.53;6.73;;;20.30;99.90;;;;;;5062748;28;20482;-70
2021/07/17 07:51:29;;;;;;;20.13;6.30;;;20.40;99.90;;;;;;5052788;28;20884;-70
2021/07/17 07:53:56;;;;;;;11.40;5.47;;;20.60;99.90;;;;;;5060553;28;20552;-72
2021/07/17 07:56:24;;;;;;;8.40;4.80;;;20.70;99.90;;;;;;5053011;28;20525;-71
2021/07/17 07:58:51;;;;;;;11.10;5.50;;;20.80;99.90;;;;;;5059832;28;20447;-72
2021/07/17 08:01:18;;;;;;;8.60;4.70;;;21.00;99.90;;;;;;5056608;28;20973;-69
2021/07/17 08:03:45;;;;;;;9.37;5.23;;;21.20;99.90;;;;;;5052439;28;20558;-71
2021/07/17 08:06:12;;;;;;;10.03;5.93;;;21.20;99.90;;;;;;5054222;28;20474;-72
2021/07/17 08:08:39;;;;;;;14.13;5.20;;;21.20;99.90;;;;;;5061402;28;20530;-69
2021/07/17 08:11:06;;;;;;;13.00;4.90;;;21.00;99.90;;;;;;5052440;28;20454;-69
2021/07/17 08:13:34;;;;;;;10.00;4.87;;;20.90;99.90;;;;;;5048839;28;21151;-71
2021/07/17 08:16:02;;;;;;;13.20;4.63;;;21.00;99.90;;;;;;5057621;28;20481;-70
2021/07/17 08:18:29;;;;;;;10.70;6.60;;;21.20;99.90;;;;;;5058155;28;20479;-71
2021/07/17 08:20:57;;;;;;;10.30;5.90;;;21.30;99.90;;;;;;5056878;28;20532;-70
2021/07/17 08:23:24;;;;;;;16.40;5.40;;;21.30;99.90;;;;;;5046666;28;20554;-70
2021/07/17 08:25:52;;;;;;;14.83;5.90;;;21.40;99.90;;;;;;5053188;28;20474;-74
2021/07/17 08:28:19;;;;;;;9.77;4.87;;;21.50;99.90;;;;;;5059537;28;20458;-72
2021/07/17 08:30:47;;;;;;;9.50;5.03;;;21.60;99.90;;;;;;5046946;28;20506;-70
2021/07/17 08:33:14;;;;;;;17.00;5.27;;;21.70;99.90;;;;;;5053912;28;20466;-71
2021/07/17 08:35:41;;;;;;;16.30;5.03;;;21.90;99.90;;;;;;5048569;28;20484;-70
2021/07/17 08:38:08;;;;;;;7.97;3.13;;;22.10;99.90;;;;;;5045466;28;20581;-72
2021/07/17 08:40:36;;;;;;;10.73;4.87;;;22.30;99.90;;;;;;5047252;28;20480;-74
2021/07/17 08:43:03;;;;;;;4.63;3.80;;;22.80;99.90;;;;;;5046231;28;20466;-70
2021/07/17 08:45:30;;;;;;;12.87;4.90;;;22.90;99.90;;;;;;5047190;28;21109;-71
2021/07/17 08:47:58;;;;;;;4.93;3.83;;;23.40;99.90;;;;;;5051797;28;21306;-73
2021/07/17 08:50:27;;;;;;;11.43;3.70;;;23.90;99.90;;;;;;5045235;28;20603;-73
2021/07/17 08:52:56;;;;;;;7.00;4.77;;;24.30;99.90;;;;;;5048774;28;20458;-73
2021/07/17 08:55:25;;;;;;;7.60;4.57;;;25.00;99.90;;;;;;5043915;28;20841;-70
2021/07/17 08:57:52;;;;;;;9.73;4.17;;;26.00;99.90;;;;;;5049440;28;20489;-74
2021/07/17 09:00:22;;;;;;;10.03;3.63;;;27.10;99.90;;;;;;5047716;28;20455;-69
2021/07/17 09:02:51;;;;;;;6.73;3.73;;;27.90;99.90;;;;;;5054275;28;20519;-69
2021/07/17 09:05:22;;;;;;;7.53;3.77;;;28.40;99.90;;;;;;5050994;28;20785;-70
2021/07/17 09:07:49;;;;;;;10.50;3.83;;;28.50;99.90;;;;;;5054421;28;20477;-74
2021/07/17 09:10:32;;;;;;;10.77;4.13;;;28.70;99.90;;;;;;5043105;28;20488;-72
2021/07/17 09:13:18;;;;;;;11.70;6.20;;;28.20;99.90;;;;;;5052150;28;20462;-73
2021/07/17 09:15:59;;;;;;;6.87;4.13;;;27.60;99.90;;;;;;5052850;28;20545;-70
2021/07/17 09:18:27;;;;;;;5.20;3.67;;;27.10;99.90;;;;;;5047203;28;20654;-71
2021/07/17 09:20:58;;;;;;;9.53;3.30;;;27.20;99.90;;;;;;5037868;28;20450;-71
2021/07/17 09:23:26;;;;;;;11.67;3.17;;;28.10;99.90;;;;;;5055359;28;20451;-70
2021/07/17 09:25:54;;;;;;;9.00;3.20;;;28.30;99.90;;;;;;5049815;28;21314;-72
2021/07/17 09:28:23;;;;;;;7.13;3.97;;;28.70;99.90;;;;;;5044980;28;20454;-72
2021/07/17 09:30:52;;;;;;;10.27;3.87;;;29.40;99.90;;;;;;5051692;28;20479;-72
2021/07/17 09:33:19;;;;;;;12.50;4.03;;;29.70;99.90;;;;;;5045252;28;20462;-73
2021/07/17 09:35:48;;;;;;;4.87;3.80;;;29.90;99.90;;;;;;5053745;28;20962;-74
2021/07/17 09:38:18;;;;;;;11.43;3.40;;;30.00;99.90;;;;;;5055463;28;21775;-70
2021/07/17 09:40:49;;;;;;;7.33;3.47;;;30.40;99.90;;;;;;5053090;28;20459;-72
2021/07/17 09:43:34;;;;;;;5.73;3.10;;;31.60;99.90;;;;;;5058884;28;20444;-70
2021/07/17 09:46:03;;;;;;;10.50;4.00;;;32.10;99.90;;;;;;5057065;28;20462;-72
2021/07/17 09:48:31;;;;;;;7.40;3.90;;;32.10;99.90;;;;;;5055119;28;20512;-72
2021/07/17 09:51:00;;;;;;;6.03;2.70;;;31.50;99.90;;;;;;5050300;28;20577;-69
2021/07/17 09:53:43;;;;;;;4.83;3.10;;;32.10;99.90;;;;;;5050528;28;20549;-71
2021/07/17 09:56:12;;;;;;;4.00;2.30;;;32.90;99.90;;;;;;5054597;28;20587;-71
2021/07/17 09:58:40;;;;;;;6.57;3.17;;;33.20;99.90;;;;;;5048429;28;20575;-69
2021/07/17 10:01:18;;;;;;;3.97;2.23;;;32.70;99.90;;;;;;5048077;28;20478;-70
2021/07/17 10:03:46;;;;;;;2.77;2.00;;;32.00;99.90;;;;;;5053680;28;20553;-69
2021/07/17 10:06:30;;;;;;;3.00;2.17;;;31.50;99.90;;;;;;5057990;28;20484;-74
2021/07/17 10:08:59;;;;;;;5.60;2.20;;;31.90;99.90;;;;;;5056324;28;20454;-70
2021/07/17 10:11:28;;;;;;;4.87;2.40;;;32.10;99.90;;;;;;5057585;28;20475;-70
2021/07/17 10:13:55;;;;;;;4.30;2.57;;;32.50;99.90;;;;;;5061855;28;20459;-72
2021/07/17 10:16:24;;;;;;;3.30;2.67;;;32.60;99.90;;;;;;5062122;28;20596;-70
2021/07/17 10:18:53;;;;;;;5.77;3.73;;;32.80;99.90;;;;;;5067007;28;20482;-70
2021/07/17 10:21:20;;;;;;;6.03;2.23;;;32.90;99.90;;;;;;5058634;28;21002;-71
2021/07/17 10:23:48;;;;;;;4.93;2.60;;;33.20;99.90;;;;;;5055660;28;20545;-70
2021/07/17 10:26:17;;;;;;;4.77;2.30;;;33.20;99.90;;;;;;5060579;28;20490;-70
2021/07/17 10:28:44;;;;;;;3.10;2.23;;;33.00;99.90;;;;;;5058690;28;20500;-70
2021/07/17 10:31:12;;;;;;;6.27;2.30;;;32.60;99.90;;;;;;5062285;28;20477;-71
2021/07/17 10:33:39;;;;;;;4.10;2.53;;;32.00;99.90;;;;;;5057436;28;20543;-71
2021/07/17 10:36:11;;;;;;;8.60;1.90;;;31.50;99.90;;;;;;5072517;28;20545;-70
2021/07/17 10:38:42;;;;;;;8.80;2.57;;;31.70;99.90;;;;;;5077407;28;20537;-70
2021/07/17 10:41:13;;;;;;;2.80;1.73;;;32.20;99.90;;;;;;5058947;28;20483;-70
2021/07/17 10:43:41;;;;;;;2.43;1.90;;;32.40;99.90;;;;;;5069781;28;20541;-71
2021/07/17 10:46:27;;;;;;;4.93;1.93;;;32.30;99.90;;;;;;5062308;28;21083;-70
2021/07/17 10:48:54;;;;;;;4.80;2.83;;;32.50;99.90;;;;;;5060648;28;20462;-70
2021/07/17 10:51:33;;;;;;;3.10;2.13;;;32.90;99.90;;;;;;5060731;28;20573;-71
2021/07/17 10:54:03;;;;;;;2.63;2.23;;;33.10;99.90;;;;;;5060996;28;20541;-72
2021/07/17 10:56:47;;;;;;;2.83;2.07;;;32.90;99.90;;;;;;5065829;28;20582;-70
2021/07/17 10:59:53;;;;;;;5.13;2.17;;;32.60;99.90;;;;;;5065474;28;20452;-70
2021/07/17 11:02:24;;;;;;;3.93;2.40;;;33.20;99.80;;;;;;5060461;28;22243;-70
2021/07/17 11:05:02;;;;;;;11.43;3.80;;;33.80;99.90;;;;;;5059529;28;20875;-70
2021/07/17 11:07:36;;;;;;;3.73;2.00;;;33.60;99.20;;;;;;5060410;28;20463;-70
2021/07/17 11:10:19;;;;;;;2.97;1.80;;;33.70;99.30;;;;;;5062747;28;20527;-71
2021/07/17 11:12:59;;;;;;;5.87;1.70;;;33.70;98.90;;;;;;5059321;28;20857;-70
2021/07/17 11:15:58;;;;;;;2.10;1.90;;;34.20;98.10;;;;;;5064856;28;20958;-70
2021/07/17 11:18:36;;;;;;;1.90;1.37;;;34.10;97.00;;;;;;4966424;28;20502;-70
2021/07/17 11:21:06;;;;;;;3.63;2.27;;;34.50;96.10;;;;;;5046094;28;20570;-70
2021/07/17 11:23:35;;;;;;;2.97;1.77;;;35.20;95.00;;;;;;5065114;28;20530;-71
2021/07/17 11:26:06;;;;;;;3.27;2.30;;;34.80;95.00;;;;;;5059794;28;20512;-71
2021/07/17 11:28:57;;;;;;;5.80;2.37;;;34.40;95.70;;;;;;5066170;28;20539;-72
2021/07/17 11:31:47;;;;;;;2.80;2.37;;;34.20;95.30;;;;;;5066673;28;20478;-74
2021/07/17 11:34:45;;;;;;;2.60;1.60;;;33.90;96.20;;;;;;5059223;28;20490;-71
2021/07/17 11:37:15;;;;;;;3.30;1.80;;;33.00;98.00;;;;;;5064836;28;20475;-70
2021/07/17 11:39:44;;;;;;;3.40;2.10;;;33.70;96.20;;;;;;5065431;28;20509;-72
2021/07/17 11:42:14;;;;;;;3.37;1.90;;;33.70;97.80;;;;;;5065390;28;20625;-70
2021/07/17 11:44:45;;;;;;;2.87;2.50;;;34.40;95.90;;;;;;5060389;28;20471;-71
2021/07/17 11:47:15;;;;;;;5.27;2.00;;;34.30;95.00;;;;;;5053530;28;20569;-73
2021/07/17 11:49:45;;;;;;;3.93;1.83;;;33.80;95.50;;;;;;5056733;28;20457;-71
2021/07/17 11:52:13;;;;;;;2.60;2.17;;;34.20;95.40;;;;;;5063579;28;20498;-71
2021/07/17 11:54:42;;;;;;;5.63;1.87;;;34.70;94.90;;;;;;5059779;28;20498;-71
2021/07/17 11:57:15;;;;;;;4.67;2.10;;;34.80;93.20;;;;;;5062563;28;21028;-70
2021/07/17 11:59:44;;;;;;;6.03;2.07;;;34.20;94.40;;;;;;5055468;28;20461;-72
2021/07/17 12:02:14;;;;;;;2.40;1.93;;;34.60;93.90;;;;;;5059691;28;20466;-71
2021/07/17 12:04:44;;;;;;;2.37;1.93;;;34.60;94.40;;;;;;5057737;28;20470;-70
2021/07/17 12:07:13;;;;;;;2.10;1.80;;;34.80;93.50;;;;;;5063314;28;21073;-70
2021/07/17 12:09:44;;;;;;;5.13;2.10;;;34.80;92.20;;;;;;5059998;28;20501;-70
2021/07/17 12:12:20;;;;;;;3.50;1.73;;;34.80;92.90;;;;;;5063217;28;20462;-70
2021/07/17 12:14:48;;;;;;;4.37;1.83;;;34.70;94.40;;;;;;5053908;28;21166;-70
2021/07/17 12:17:22;;;;;;;1.50;1.20;;;35.40;94.20;;;;;;5064596;28;22061;-72
2021/07/17 12:20:00;;;;;;;4.10;1.77;;;35.90;91.10;;;;;;5060382;28;20442;-70
2021/07/17 12:22:28;;;;;;;2.73;1.43;;;34.60;91.60;;;;;;5062092;28;20520;-68
2021/07/17 12:25:10;;;;;;;7.20;2.43;;;33.90;93.80;;;;;;5062568;28;20545;-69
2021/07/17 12:28:01;;;;;;;5.37;2.37;;;33.40;95.00;;;;;;5062158;28;20510;-71
2021/07/17 12:30:31;;;;;;;3.50;2.00;;;34.10;93.10;;;;;;5063781;28;20478;-69
2021/07/17 12:33:18;;;;;;;2.70;1.77;;;34.50;93.20;;;;;;5062081;28;20459;-70
2021/07/17 12:35:47;;;;;;;2.27;1.70;;;34.20;93.00;;;;;;5065031;28;20533;-69
2021/07/17 12:38:18;;;;;;;3.63;2.20;;;34.10;92.60;;;;;;5059276;28;20500;-69
2021/07/17 12:40:59;;;;;;;2.93;1.50;;;34.60;92.10;;;;;;5061706;28;20541;-71
2021/07/17 12:43:38;;;;;;;2.53;1.60;;;35.10;90.50;;;;;;5059790;28;20476;-75
2021/07/17 12:46:09;;;;;;;2.10;1.63;;;35.70;90.60;;;;;;5058383;28;20490;-70
2021/07/17 12:48:49;;;;;;;4.53;2.00;;;35.90;90.30;;;;;;5060220;28;20470;-73
2021/07/17 12:51:19;;;;;;;2.40;1.37;;;36.00;89.00;;;;;;5065823;28;20466;-72